Details for Ryanair at EGCC




Go Back


Latest METAR
Local Time

EGCC 252150Z AUTO 05011KT 9999 BKN011 14/12 Q1022 NOSIG

25/05/2018, 23:15:44

Description
Results
Ryanair Logo
Number of Pilots based at EGCC
1 Pilots Based here
Number of Ryanair Flights Departed from EGCC
50 Flights Departed
Number of Ryanair Flights Arrived at EGCC
52 Flights Arrived
Number of Ryanair Schedules Departing from EGCC
119 Schedules
Number of Ryanair Schedules Arriving at EGCC
124 Schedules
Number of Ryanair Schedules Departing from EGCC availible today
49 Schedules Today
Number of Ryanair Schedules Arriving at EGCC availible today
49 Schedules Today
Average Landing Rate at EGCC
-211 fpm
Ryanair Average Landing Rate at EGCC
-150 fpm
Total Fuel Purchased at EGCC by Ryanair
342,396.49 kgs / 754,847.30 lbs

Pilots Based at EGCC


Pilot ID
Pilot Name
Pilot Rank
No. of Flights
No. of Flying Hours
Andrew Sutcliffe
369
1400.17
Content